Time;durP1;ratioP1;P1;durP2;ratioP2;P2;SDS_P1;SDS_P2;PMS_P1;PMS_P2;Temp;Humidity;BMP_temperature;BMP_pressure;BME280_temperature;BME280_humidity;BME280_pressure;Samples;Min_cycle;Max_cycle;Signal;HPM_P1;HPM_P2
2022/11/14 00:00:00;;;;;;;28.08;18.25;;;;;;;9.32;67.19;101690.50;5011397;28;20034;-43
2022/11/14 00:02:25;;;;;;;28.13;17.83;;;;;;;9.31;67.18;101691.34;5014385;28;20095;-47
2022/11/14 00:04:51;;;;;;;27.42;18.27;;;;;;;9.31;66.98;101683.53;5014803;28;20026;-48
2022/11/14 00:07:16;;;;;;;27.05;17.25;;;;;;;9.30;66.86;101689.56;4998019;28;20438;-44
2022/11/14 00:09:41;;;;;;;27.98;17.95;;;;;;;9.25;67.29;101696.34;5015280;28;20041;-41
2022/11/14 00:12:11;;;;;;;27.10;17.85;;;;;;;9.21;67.35;101695.34;5015546;28;20017;-50
2022/11/14 00:14:37;;;;;;;28.95;18.95;;;;;;;9.07;67.76;101701.84;5015809;28;20050;-42
2022/11/14 00:17:02;;;;;;;31.02;19.33;;;;;;;9.06;67.71;101687.06;5015109;28;20076;-45
2022/11/14 00:19:28;;;;;;;31.67;19.50;;;;;;;9.05;67.38;101689.63;5013158;28;20123;-46
2022/11/14 00:21:53;;;;;;;31.70;20.40;;;;;;;8.96;68.47;101683.28;5011533;28;20029;-44
2022/11/14 00:24:19;;;;;;;30.33;19.42;;;;;;;9.07;68.02;101686.25;5011321;28;20029;-43
2022/11/14 00:26:44;;;;;;;29.20;18.65;;;;;;;8.97;68.63;101684.16;5011057;28;20030;-44
2022/11/14 00:29:10;;;;;;;29.17;18.80;;;;;;;9.15;68.24;101694.31;5011030;28;20030;-45
2022/11/14 00:31:36;;;;;;;29.80;19.33;;;;;;;9.19;67.88;101689.25;5011073;28;20029;-44
2022/11/14 00:34:01;;;;;;;30.52;18.70;;;;;;;9.19;68.51;101688.34;5012060;28;20018;-42
2022/11/14 00:36:26;;;;;;;29.05;18.73;;;;;;;9.24;67.94;101678.97;5013341;28;20479;-46
2022/11/14 00:38:53;;;;;;;29.15;18.85;;;;;;;9.20;67.83;101684.94;5013226;28;20022;-44
2022/11/14 00:41:19;;;;;;;27.30;18.73;;;;;;;9.17;67.72;101671.81;5015715;28;20029;-46
2022/11/14 00:43:44;;;;;;;28.63;18.52;;;;;;;9.18;67.68;101674.47;5017475;28;20030;-44
2022/11/14 00:46:09;;;;;;;27.50;18.67;;;;;;;9.09;68.05;101668.09;5016085;28;20037;-45
2022/11/14 00:48:35;;;;;;;28.85;18.65;;;;;;;9.18;67.67;101673.56;5017033;28;20053;-47
2022/11/14 00:51:00;;;;;;;28.25;18.63;;;;;;;9.15;67.44;101670.91;5015850;28;20030;-46
2022/11/14 00:53:25;;;;;;;27.20;17.73;;;;;;;9.16;67.48;101675.22;5016516;28;20036;-44
2022/11/14 00:55:51;;;;;;;29.92;18.45;;;;;;;9.11;67.67;101663.81;5017332;28;20025;-43
2022/11/14 00:58:16;;;;;;;26.63;17.77;;;;;;;9.12;67.18;101662.97;5016935;28;20079;-45
2022/11/14 01:00:41;;;;;;;27.42;17.63;;;;;;;9.16;67.03;101655.31;5016606;28;20026;-43
2022/11/14 01:03:06;;;;;;;25.77;17.33;;;;;;;9.08;67.34;101635.13;5016173;28;20071;-45
2022/11/14 01:05:32;;;;;;;28.48;17.90;;;;;;;9.10;67.58;101642.09;5016622;28;20034;-48
2022/11/14 01:07:57;;;;;;;28.90;17.98;;;;;;;8.96;67.78;101646.00;5018788;28;20037;-46
2022/11/14 01:10:22;;;;;;;29.02;18.05;;;;;;;9.07;67.16;101646.34;5001446;28;20049;-44
2022/11/14 01:12:48;;;;;;;27.88;17.80;;;;;;;8.99;67.42;101640.00;5020202;28;20190;-44
2022/11/14 01:15:13;;;;;;;27.85;17.98;;;;;;;9.01;67.35;101639.22;5016911;28;20029;-44
2022/11/14 01:17:39;;;;;;;25.75;17.42;;;;;;;9.11;67.41;101638.69;5019697;28;20080;-48
2022/11/14 01:20:05;;;;;;;27.90;18.13;;;;;;;8.97;67.55;101637.34;5019727;28;20034;-43
2022/11/14 01:22:31;;;;;;;27.35;17.63;;;;;;;8.94;67.42;101632.94;5017928;28;20034;-46
2022/11/14 01:24:59;;;;;;;28.38;18.02;;;;;;;9.05;67.24;101629.78;5017937;28;20101;-46
2022/11/14 01:27:24;;;;;;;26.42;17.27;;;;;;;9.09;67.05;101629.09;5016409;28;20580;-44
2022/11/14 01:29:49;;;;;;;27.45;17.58;;;;;;;9.08;66.61;101627.31;5011937;28;20029;-46
2022/11/14 01:32:15;;;;;;;28.65;18.08;;;;;;;8.94;67.14;101625.16;5011301;28;20014;-44
2022/11/14 01:34:40;;;;;;;29.95;17.40;;;;;;;8.84;67.41;101619.63;5011429;28;20556;-43
2022/11/14 01:37:05;;;;;;;27.48;17.38;;;;;;;8.92;67.40;101619.00;5011629;28;20069;-45
2022/11/14 01:39:31;;;;;;;27.52;17.52;;;;;;;8.89;67.11;101616.31;5011785;28;20030;-45
2022/11/14 01:41:57;;;;;;;29.48;18.08;;;;;;;8.90;66.69;101612.88;5011524;28;20099;-43
2022/11/14 01:44:48;;;;;;;26.65;17.27;;;;;;;8.85;67.03;101605.75;5011995;28;20386;-45
2022/11/14 01:47:18;;;;;;;25.85;16.70;;;;;;;9.00;66.55;101611.47;5012314;28;20045;-46
2022/11/14 01:49:47;;;;;;;26.35;16.73;;;;;;;8.87;66.71;101610.19;5012137;28;20100;-44
2022/11/14 01:52:25;;;;;;;25.80;16.42;;;;;;;8.77;67.23;101600.34;5010963;28;20023;-47
2022/11/14 01:54:53;;;;;;;26.90;17.30;;;;;;;8.74;67.33;101599.34;5011339;28;20022;-45
2022/11/14 01:57:27;;;;;;;27.95;17.77;;;;;;;8.73;67.36;101595.84;5011435;28;20026;-45
2022/11/14 01:59:55;;;;;;;26.77;17.37;;;;;;;8.75;67.28;101580.31;5011740;28;20072;-44
2022/11/14 02:02:23;;;;;;;27.80;17.80;;;;;;;8.64;67.03;101587.78;5011409;28;20393;-44
2022/11/14 02:04:59;;;;;;;28.38;16.75;;;;;;;8.71;67.06;101578.47;5011657;28;20026;-49
2022/11/14 02:07:26;;;;;;;28.35;17.55;;;;;;;8.73;66.25;101579.38;5011972;28;20034;-43
2022/11/14 02:09:52;;;;;;;26.90;16.98;;;;;;;8.63;66.84;101582.50;5012420;28;20018;-45
2022/11/14 02:12:19;;;;;;;25.38;17.20;;;;;;;8.60;66.85;101578.09;5011461;28;20072;-46
2022/11/14 02:14:47;;;;;;;27.33;17.73;;;;;;;8.50;67.20;101578.63;5011262;28;20037;-47
2022/11/14 02:17:14;;;;;;;26.20;16.40;;;;;;;8.56;66.98;101568.44;5011396;28;20053;-45
2022/11/14 02:20:05;;;;;;;26.95;17.15;;;;;;;8.47;66.99;101561.25;5011077;28;20032;-47
2022/11/14 02:22:30;;;;;;;25.60;16.85;;;;;;;8.43;66.66;101556.75;5001220;28;20037;-44
2022/11/14 02:24:55;;;;;;;27.83;18.00;;;;;;;8.40;67.21;101548.00;4974786;28;1056305;-45
2022/11/14 02:27:21;;;;;;;28.15;17.58;;;;;;;8.43;66.87;101540.28;5011574;28;20470;-45
2022/11/14 02:29:46;;;;;;;30.42;18.17;;;;;;;8.35;67.05;101540.06;5012113;28;20032;-47
2022/11/14 02:32:11;;;;;;;26.35;17.48;;;;;;;8.35;67.12;101539.16;5011785;28;20561;-44
2022/11/14 02:34:38;;;;;;;28.98;17.33;;;;;;;8.34;66.85;101538.28;5013946;28;20099;-46
2022/11/14 02:37:04;;;;;;;26.40;16.67;;;;;;;8.33;66.57;101533.91;5014650;28;20056;-45
2022/11/14 02:39:29;;;;;;;28.58;16.98;;;;;;;8.26;66.71;101538.81;5012175;28;20053;-44
2022/11/14 02:41:54;;;;;;;26.63;17.13;;;;;;;8.26;66.98;101533.63;5011390;28;20080;-44
2022/11/14 02:44:20;;;;;;;27.27;17.67;;;;;;;8.22;67.22;101530.06;5011976;28;20025;-48
2022/11/14 02:46:45;;;;;;;28.10;17.42;;;;;;;8.22;67.21;101530.06;5012101;28;20083;-45
2022/11/14 02:49:11;;;;;;;27.10;17.35;;;;;;;8.23;67.23;101530.94;5011724;28;20482;-45
2022/11/14 02:51:36;;;;;;;29.88;18.15;;;;;;;8.06;67.89;101523.44;5011100;28;20089;-44
2022/11/14 02:54:02;;;;;;;29.13;17.98;;;;;;;8.12;67.71;101523.66;5011428;28;20021;-45
2022/11/14 02:56:27;;;;;;;28.02;17.60;;;;;;;8.07;67.92;101514.81;5011275;28;20030;-44
2022/11/14 02:58:52;;;;;;;28.73;18.70;;;;;;;8.19;67.46;101509.16;4994110;28;20397;-44
2022/11/14 03:01:18;;;;;;;31.45;17.92;;;;;;;8.19;67.77;101511.75;5011213;28;20446;-48
2022/11/14 03:03:43;;;;;;;27.13;17.98;;;;;;;8.23;67.11;101512.75;5012072;28;20026;-43
2022/11/14 03:06:08;;;;;;;28.58;18.00;;;;;;;8.21;66.83;101517.88;5011007;28;20032;-45
2022/11/14 03:08:33;;;;;;;29.42;18.17;;;;;;;8.19;66.90;101513.47;5011010;28;20042;-44
2022/11/14 03:11:06;;;;;;;30.50;18.35;;;;;;;8.05;67.41;101508.69;5010934;28;20039;-44
2022/11/14 03:13:32;;;;;;;30.25;18.35;;;;;;;7.95;67.80;101513.53;5011034;28;20029;-43
2022/11/14 03:16:03;;;;;;;32.80;19.15;;;;;;;8.04;67.62;101513.84;5011212;28;20028;-47
2022/11/14 03:18:28;;;;;;;29.63;18.42;;;;;;;7.96;68.05;101516.19;5011096;28;20037;-43
2022/11/14 03:20:54;;;;;;;27.58;17.58;;;;;;;8.04;67.84;101513.84;5010918;28;20056;-43
2022/11/14 03:23:19;;;;;;;29.73;18.27;;;;;;;8.08;67.52;101510.50;5011077;28;20026;-47
2022/11/14 03:25:44;;;;;;;30.17;18.00;;;;;;;7.98;67.34;101511.94;5027888;22;20050;-42
2022/11/14 03:28:09;;;;;;;29.75;18.20;;;;;;;7.95;67.68;101508.34;5014600;28;20022;-42
2022/11/14 03:30:35;;;;;;;31.75;19.13;;;;;;;7.89;68.13;101509.00;5013349;28;20567;-44
2022/11/14 03:33:00;;;;;;;30.40;18.15;;;;;;;7.85;68.27;101509.75;5012786;28;20033;-41
2022/11/14 03:35:25;;;;;;;31.63;18.85;;;;;;;7.94;67.54;101501.38;5013457;28;20038;-43
2022/11/14 03:37:50;;;;;;;31.77;19.05;;;;;;;7.97;67.49;101504.97;5013313;28;20040;-43
2022/11/14 03:40:16;;;;;;;31.13;18.85;;;;;;;7.90;67.69;101510.78;5013124;28;20088;-42
2022/11/14 03:42:41;;;;;;;31.67;18.63;;;;;;;7.99;67.07;101502.44;5012103;28;20021;-41
2022/11/14 03:45:07;;;;;;;31.13;18.42;;;;;;;7.92;67.06;101501.34;5011634;28;20390;-41
2022/11/14 03:47:32;;;;;;;29.85;18.50;;;;;;;7.82;67.38;101503.53;5011905;28;20057;-45
2022/11/14 03:49:57;;;;;;;30.77;18.15;;;;;;;7.81;67.52;101500.06;5009831;28;20026;-41
2022/11/14 03:52:24;;;;;;;33.65;19.52;;;;;;;7.77;68.05;101489.53;5011446;28;20018;-42
2022/11/14 03:54:50;;;;;;;32.05;19.23;;;;;;;7.62;68.25;101484.72;5011435;28;20029;-42
2022/11/14 03:57:15;;;;;;;34.00;19.95;;;;;;;7.61;68.45;101489.03;5011651;28;20021;-42
2022/11/14 03:59:41;;;;;;;32.40;19.75;;;;;;;7.70;68.11;101485.84;5012055;28;20472;-45
2022/11/14 04:02:06;;;;;;;33.20;19.27;;;;;;;7.68;68.22;101490.13;5012298;28;20022;-43
2022/11/14 04:04:31;;;;;;;34.50;19.95;;;;;;;7.44;68.28;101487.50;5012487;28;20394;-43
2022/11/14 04:06:56;;;;;;;34.60;19.88;;;;;;;7.69;68.08;101486.66;5013320;28;20026;-42
2022/11/14 04:09:22;;;;;;;37.72;19.42;;;;;;;7.41;68.78;101487.44;5029453;28;20387;-40
2022/11/14 04:11:47;;;;;;;35.90;19.92;;;;;;;7.60;68.37;101484.66;5013538;28;20026;-39
2022/11/14 04:14:12;;;;;;;34.83;19.75;;;;;;;7.69;67.87;101479.75;5011829;28;20040;-43
2022/11/14 04:16:38;;;;;;;34.42;19.92;;;;;;;7.56;68.10;101472.38;5010945;28;20044;-43
2022/11/14 04:19:03;;;;;;;32.15;19.08;;;;;;;7.55;67.80;101464.56;5010361;28;20589;-42
2022/11/14 04:21:28;;;;;;;36.13;19.55;;;;;;;7.57;68.16;101463.78;5010289;28;20034;-41
2022/11/14 04:23:54;;;;;;;37.28;19.30;;;;;;;7.60;67.48;101457.81;5010367;28;20038;-40
2022/11/14 04:26:19;;;;;;;36.63;20.60;;;;;;;7.49;68.38;101456.56;5010164;28;20322;-41
2022/11/14 04:28:44;;;;;;;33.75;19.17;;;;;;;7.60;67.47;101456.13;5009261;28;20418;-45
2022/11/14 04:31:10;;;;;;;36.38;19.85;;;;;;;7.50;67.91;101458.34;5009713;28;20040;-41
2022/11/14 04:33:35;;;;;;;40.08;20.52;;;;;;;7.48;68.54;101454.81;5009830;28;20018;-41
2022/11/14 04:36:00;;;;;;;36.45;19.95;;;;;;;7.61;67.72;101457.00;5010062;28;20056;-41
2022/11/14 04:38:25;;;;;;;38.95;20.30;;;;;;;7.31;68.42;101460.28;5010189;28;20104;-41
2022/11/14 04:40:52;;;;;;;39.50;20.67;;;;;;;7.47;68.09;101453.03;5010137;28;20034;-46
2022/11/14 04:43:18;;;;;;;38.63;20.25;;;;;;;7.49;67.97;101456.56;5010140;28;20034;-43
2022/11/14 04:45:43;;;;;;;36.45;20.00;;;;;;;7.17;68.46;101458.91;5009992;28;20073;-43
2022/11/14 04:48:09;;;;;;;40.20;21.17;;;;;;;7.33;68.63;101450.81;5010250;28;20518;-41
2022/11/14 04:50:34;;;;;;;38.50;20.80;;;;;;;7.28;68.30;101442.00;5012398;28;20474;-40
2022/11/14 04:52:59;;;;;;;38.58;20.60;;;;;;;7.38;68.08;101440.59;5013962;28;20515;-44
2022/11/14 04:55:25;;;;;;;39.08;20.40;;;;;;;7.35;68.00;101437.91;5014091;28;20040;-41
2022/11/14 04:57:55;;;;;;;39.53;20.85;;;;;;;7.21;67.97;101429.66;5014245;28;20518;-43
2022/11/14 05:00:20;;;;;;;38.95;20.45;;;;;;;7.40;68.02;101423.41;5012799;28;20553;-43
2022/11/14 05:02:46;;;;;;;38.47;20.75;;;;;;;7.25;67.88;101428.94;5013443;28;20113;-43
2022/11/14 05:05:11;;;;;;;37.10;19.52;;;;;;;7.19;68.41;101422.66;5014066;28;20064;-43
2022/11/14 05:07:36;;;;;;;40.95;20.90;;;;;;;7.28;68.02;101426.44;5014097;28;20025;-42
2022/11/14 05:10:02;;;;;;;39.75;20.85;;;;;;;7.24;67.90;101416.81;5015497;28;20105;-41
2022/11/14 05:12:28;;;;;;;41.83;21.13;;;;;;;7.14;68.15;101417.28;5013869;28;20056;-41
2022/11/14 05:14:53;;;;;;;36.13;19.83;;;;;;;7.11;68.41;101405.94;5014405;28;20057;-44
2022/11/14 05:17:18;;;;;;;40.05;20.42;;;;;;;7.06;68.41;101410.97;5015149;28;20032;-43
2022/11/14 05:19:44;;;;;;;44.08;21.17;;;;;;;7.15;68.64;101406.09;5016498;28;20029;-45
2022/11/14 05:22:09;;;;;;;41.03;21.58;;;;;;;7.06;68.62;101400.59;5017815;28;20033;-43
2022/11/14 05:24:34;;;;;;;42.33;21.30;;;;;;;7.15;68.11;101395.72;5017738;28;20057;-39
2022/11/14 05:26:59;;;;;;;43.70;21.60;;;;;;;7.19;68.37;101397.63;5017527;28;20048;-42
2022/11/14 05:29:25;;;;;;;42.88;21.45;;;;;;;7.03;68.72;101397.88;5016236;28;20082;-40
2022/11/14 05:31:50;;;;;;;42.42;22.13;;;;;;;6.98;68.93;101404.59;5015867;28;20048;-41
2022/11/14 05:34:15;;;;;;;46.80;22.67;;;;;;;7.07;68.92;101396.28;5014404;28;20050;-41
2022/11/14 05:36:41;;;;;;;42.00;21.40;;;;;;;7.09;68.72;101395.50;5013911;28;20030;-39
2022/11/14 05:39:06;;;;;;;39.40;20.33;;;;;;;7.26;68.18;101409.06;5013819;28;20028;-40
2022/11/14 05:41:31;;;;;;;42.45;21.15;;;;;;;7.23;67.97;101408.97;5013572;28;20037;-38
2022/11/14 05:43:57;;;;;;;46.45;21.92;;;;;;;7.20;68.01;101407.13;5013767;28;20105;-40
2022/11/14 05:46:22;;;;;;;47.47;22.08;;;;;;;7.17;68.31;101403.56;5013346;28;20025;-41
2022/11/14 05:48:47;;;;;;;41.97;21.85;;;;;;;7.18;68.39;101389.78;5012238;28;20121;-40
2022/11/14 05:51:13;;;;;;;43.97;21.35;;;;;;;7.26;67.73;101388.31;5013433;28;20034;-41
2022/11/14 05:53:39;;;;;;;42.05;21.23;;;;;;;7.22;68.41;101387.31;5013046;28;20018;-40
2022/11/14 05:56:08;;;;;;;44.88;21.80;;;;;;;7.30;68.19;101387.59;5013206;28;20030;-40
2022/11/14 05:58:34;;;;;;;45.63;20.73;;;;;;;7.32;67.87;101385.91;5013003;28;20026;-40
2022/11/14 06:01:02;;;;;;;44.42;20.70;;;;;;;7.26;67.86;101381.41;5011745;28;20105;-40
2022/11/14 06:03:33;;;;;;;45.95;21.48;;;;;;;7.26;68.23;101384.00;5012560;28;20037;-39
2022/11/14 06:06:02;;;;;;;46.67;22.35;;;;;;;7.28;67.85;101387.53;5013245;28;20402;-40
2022/11/14 06:08:28;;;;;;;45.15;21.60;;;;;;;7.25;68.26;101381.38;5012624;28;20032;-38
2022/11/14 06:10:54;;;;;;;46.95;21.90;;;;;;;7.27;67.97;101388.38;5013005;28;20121;-42
2022/11/14 06:13:19;;;;;;;46.00;21.75;;;;;;;7.13;68.37;101388.72;5013327;28;20020;-39
2022/11/14 06:15:45;;;;;;;40.55;20.42;;;;;;;7.17;68.49;101388.00;5012439;28;20026;-40
2022/11/14 06:18:10;;;;;;;45.45;21.80;;;;;;;7.20;68.57;101388.97;5012605;28;20037;-42
2022/11/14 06:20:35;;;;;;;45.88;22.00;;;;;;;7.05;69.26;101395.34;5012405;28;20135;-37
2022/11/14 06:23:00;;;;;;;43.13;20.92;;;;;;;7.11;69.28;101390.38;5012631;28;20030;-40
2022/11/14 06:25:26;;;;;;;46.00;21.42;;;;;;;7.22;69.20;101399.41;5012850;28;20164;-39
2022/11/14 06:27:51;;;;;;;49.95;22.00;;;;;;;7.12;69.02;101402.53;5012726;28;20079;-39
2022/11/14 06:30:16;;;;;;;42.40;21.27;;;;;;;7.25;68.54;101390.03;5012215;28;20076;-43
2022/11/14 06:32:42;;;;;;;40.53;20.83;;;;;;;7.27;68.52;101393.56;5012598;28;20026;-40
2022/11/14 06:35:07;;;;;;;46.78;21.58;;;;;;;7.23;68.61;101390.81;5012402;28;20076;-42
2022/11/14 06:37:35;;;;;;;44.15;21.70;;;;;;;7.35;68.16;101391.22;5013091;28;20032;-42
2022/11/14 06:40:01;;;;;;;42.65;21.00;;;;;;;7.26;67.89;101388.31;5013016;28;20025;-43
2022/11/14 06:42:26;;;;;;;43.40;21.10;;;;;;;7.26;68.27;101390.91;5012841;28;20045;-39
2022/11/14 06:44:51;;;;;;;41.15;20.17;;;;;;;7.35;67.53;101393.81;5012915;28;20102;-44
2022/11/14 06:47:16;;;;;;;42.53;20.88;;;;;;;7.19;67.82;101391.53;5013013;28;20037;-40
2022/11/14 06:49:42;;;;;;;41.75;20.75;;;;;;;7.18;67.67;101388.06;5012878;28;20162;-40
2022/11/14 06:52:07;;;;;;;40.97;20.17;;;;;;;7.16;67.31;101386.22;5013540;28;20025;-40
2022/11/14 06:54:32;;;;;;;41.30;20.67;;;;;;;7.10;67.65;101386.91;5016527;28;20022;-40
2022/11/14 06:56:58;;;;;;;43.60;20.83;;;;;;;7.08;67.69;101392.84;5015336;28;20490;-39
2022/11/14 06:59:23;;;;;;;39.90;19.65;;;;;;;7.04;67.55;101390.97;5015663;28;20022;-40
2022/11/14 07:01:48;;;;;;;41.72;19.88;;;;;;;7.03;67.72;101395.28;5015867;28;20037;-41
2022/11/14 07:04:14;;;;;;;42.65;20.95;;;;;;;7.07;67.69;101396.28;5017179;28;20018;-40
2022/11/14 07:06:39;;;;;;;44.05;20.95;;;;;;;7.02;68.03;101388.31;5019176;28;20030;-40
2022/11/14 07:09:04;;;;;;;42.58;20.98;;;;;;;7.08;68.43;101398.91;5018047;28;20033;-40
2022/11/14 07:11:30;;;;;;;47.40;21.10;;;;;;;7.07;68.61;101392.00;5015805;28;20097;-38
2022/11/14 07:14:00;;;;;;;44.28;21.50;;;;;;;6.97;68.98;101395.06;5011434;28;20036;-38
2022/11/14 07:16:31;;;;;;;46.10;21.23;;;;;;;7.04;69.31;101390.97;5009380;28;20034;-39
2022/11/14 07:18:57;;;;;;;42.47;21.17;;;;;;;6.84;69.82;101392.84;5010684;28;20033;-40
2022/11/14 07:21:24;;;;;;;47.30;21.27;;;;;;;7.18;69.17;101395.84;5010625;28;20018;-38
2022/11/14 07:23:49;;;;;;;47.45;22.17;;;;;;;7.22;69.15;101389.91;5010699;28;20018;-46
2022/11/14 07:26:15;;;;;;;45.63;21.25;;;;;;;7.32;68.92;101381.63;5011620;28;20047;-38
2022/11/14 07:28:42;;;;;;;44.42;21.35;;;;;;;7.24;69.01;101377.91;5009349;28;20029;-39
2022/11/14 07:31:11;;;;;;;41.90;20.35;;;;;;;7.29;68.45;101368.56;5011070;28;20440;-41
2022/11/14 07:33:37;;;;;;;43.83;20.88;;;;;;;7.42;68.97;101369.88;5011022;28;20018;-41
2022/11/14 07:36:02;;;;;;;40.25;20.30;;;;;;;7.55;68.07;101368.56;5011079;28;20040;-38
2022/11/14 07:38:30;;;;;;;42.38;20.42;;;;;;;7.55;68.48;101372.06;5010914;28;20082;-41
2022/11/14 07:41:01;;;;;;;40.28;20.15;;;;;;;7.39;68.83;101367.16;5010807;28;20109;-42
2022/11/14 07:43:27;;;;;;;40.00;20.00;;;;;;;7.31;69.10;101377.28;5011112;28;20061;-40
2022/11/14 07:45:53;;;;;;;39.33;20.35;;;;;;;7.36;69.44;101372.25;5011806;28;20026;-41
2022/11/14 07:48:20;;;;;;;42.88;20.42;;;;;;;7.69;68.76;101373.38;5011584;28;20028;-38
2022/11/14 07:50:46;;;;;;;41.88;20.63;;;;;;;7.87;67.98;101364.44;5011354;28;20033;-39
2022/11/14 07:53:12;;;;;;;40.05;19.60;;;;;;;8.08;67.29;101359.91;5011108;28;20037;-38
2022/11/14 07:55:37;;;;;;;36.92;19.35;;;;;;;7.99;67.53;101363.09;5011083;28;20478;-39
2022/11/14 07:58:03;;;;;;;38.60;19.73;;;;;;;8.03;67.43;101358.88;5026242;28;20030;-39
2022/11/14 08:00:29;;;;;;;36.90;19.70;;;;;;;8.14;67.21;101360.97;5009913;28;20025;-39
2022/11/14 08:02:54;;;;;;;34.97;19.40;;;;;;;8.25;66.77;101360.41;5012070;28;20037;-41
2022/11/14 08:05:20;;;;;;;31.98;17.88;;;;;;;8.33;66.36;101354.66;5011234;28;20108;-36
2022/11/14 08:07:45;;;;;;;36.25;18.35;;;;;;;8.43;66.16;101358.41;5013469;28;20017;-40
2022/11/14 08:10:13;;;;;;;34.70;18.50;;;;;;;8.44;66.04;101352.38;5016932;28;20093;-40
2022/11/14 08:12:39;;;;;;;35.10;18.23;;;;;;;8.59;65.70;101355.44;5016217;28;20099;-39
2022/11/14 08:15:09;;;;;;;37.75;18.40;;;;;;;8.63;65.68;101354.69;5014360;28;20364;-41
2022/11/14 08:17:34;;;;;;;33.72;18.70;;;;;;;8.38;66.14;101354.78;5012234;28;20050;-39
2022/11/14 08:19:59;;;;;;;32.53;17.02;;;;;;;8.51;65.74;101351.72;5012391;28;20068;-39
2022/11/14 08:22:25;;;;;;;35.50;17.70;;;;;;;8.72;65.25;101347.13;5010787;28;20483;-43
2022/11/14 08:24:50;;;;;;;32.92;18.08;;;;;;;8.79;65.23;101342.97;5011651;28;20516;-39
2022/11/14 08:27:16;;;;;;;32.17;17.45;;;;;;;8.50;65.85;101344.75;5012715;28;20044;-39
2022/11/14 08:29:41;;;;;;;32.75;18.10;;;;;;;8.56;65.66;101344.94;5014469;28;20098;-40
2022/11/14 08:32:06;;;;;;;34.08;17.40;;;;;;;8.74;65.09;101345.47;5013899;28;20062;-40
2022/11/14 08:34:32;;;;;;;33.80;17.33;;;;;;;8.96;64.41;101345.19;5014147;28;20028;-39
2022/11/14 08:36:57;;;;;;;30.60;16.92;;;;;;;9.08;64.38;101346.41;5014546;28;20025;-41
2022/11/14 08:39:23;;;;;;;29.30;16.70;;;;;;;8.87;64.48;101344.09;5014042;28;20037;-39
2022/11/14 08:41:48;;;;;;;31.27;16.75;;;;;;;9.03;64.79;101338.44;5014231;28;20032;-41
2022/11/14 08:44:13;;;;;;;28.42;16.88;;;;;;;9.29;63.61;101333.94;5015040;28;20018;-40
2022/11/14 08:46:39;;;;;;;28.65;16.55;;;;;;;9.35;63.13;101336.69;5016059;28;20045;-39
2022/11/14 08:49:04;;;;;;;31.55;16.77;;;;;;;9.29;63.08;101329.63;5014637;28;20026;-41
2022/11/14 08:51:29;;;;;;;31.42;16.55;;;;;;;9.23;63.98;101329.47;5014335;28;20036;-39
2022/11/14 08:53:55;;;;;;;30.38;16.73;;;;;;;9.31;64.14;101330.56;5014508;28;20108;-38
2022/11/14 08:56:20;;;;;;;28.38;16.63;;;;;;;9.41;62.96;101317.75;5013984;28;20034;-39
2022/11/14 08:58:45;;;;;;;31.23;16.23;;;;;;;9.48;62.20;101320.56;5014212;28;20041;-38
2022/11/14 09:01:11;;;;;;;26.30;15.65;;;;;;;9.49;62.41;101319.72;5013293;28;20096;-41
2022/11/14 09:03:36;;;;;;;28.85;16.83;;;;;;;9.45;62.36;101320.50;5012645;28;20490;-39
2022/11/14 09:06:02;;;;;;;27.95;16.55;;;;;;;9.44;63.56;101328.25;5013770;28;20087;-42
2022/11/14 09:08:28;;;;;;;30.02;16.38;;;;;;;8.96;64.19;101319.19;5013635;28;20041;-37
2022/11/14 09:10:54;;;;;;;30.25;16.92;;;;;;;8.72;64.77;101322.88;5013493;28;20076;-38
2022/11/14 09:13:19;;;;;;;30.77;17.00;;;;;;;9.39;63.39;101322.94;5013361;28;20057;-40
2022/11/14 09:15:44;;;;;;;29.38;17.33;;;;;;;9.51;62.02;101328.47;5013831;28;20105;-39
2022/11/14 09:18:11;;;;;;;31.67;16.95;;;;;;;9.38;62.26;101321.19;5013739;28;20030;-42
2022/11/14 09:20:36;;;;;;;29.65;16.35;;;;;;;9.33;62.90;101315.00;5013095;28;20057;-41
2022/11/14 09:23:03;;;;;;;32.63;18.35;;;;;;;9.23;63.18;101313.84;5013414;28;20486;-47
2022/11/14 09:25:29;;;;;;;28.83;16.20;;;;;;;9.05;63.42;101315.09;5033717;22;20038;-49
2022/11/14 09:27:55;;;;;;;29.33;17.45;;;;;;;9.14;63.29;101308.44;5013404;28;20033;-46
2022/11/14 09:30:21;;;;;;;30.75;17.27;;;;;;;9.31;63.18;101301.03;5013571;28;20129;-48
2022/11/14 09:32:47;;;;;;;31.35;17.02;;;;;;;9.52;62.13;101298.97;5014534;28;20021;-43
2022/11/14 09:35:12;;;;;;;30.35;16.55;;;;;;;9.32;62.88;101298.50;5015007;28;20029;-44
2022/11/14 09:37:38;;;;;;;27.65;16.85;;;;;;;9.37;63.26;101296.00;5013997;28;20421;-47
2022/11/14 09:40:04;;;;;;;29.52;17.17;;;;;;;9.40;62.15;101298.66;5015222;28;20021;-44
2022/11/14 09:43:07;;;;;;;28.90;17.73;;;;;;;9.60;61.72;101291.34;5015531;28;20026;-44
2022/11/14 09:45:39;;;;;;;29.10;16.85;;;;;;;9.63;62.32;101294.03;5012879;28;20030;-44
2022/11/14 09:48:11;;;;;;;28.98;16.92;;;;;;;9.78;62.41;101294.38;5013389;28;20022;-45
2022/11/14 09:50:43;;;;;;;29.58;16.83;;;;;;;9.72;62.64;101282.09;5012736;28;20053;-44
2022/11/14 09:53:41;;;;;;;30.50;17.00;;;;;;;9.32;63.24;101287.19;5013378;28;20090;-43
2022/11/14 09:56:12;;;;;;;30.10;16.98;;;;;;;9.45;62.63;101277.97;5007926;28;20041;-45
2022/11/14 09:58:39;;;;;;;29.48;17.02;;;;;;;9.64;62.24;101270.63;5012715;28;20029;-44
2022/11/14 10:01:27;;;;;;;31.08;17.63;;;;;;;9.51;63.25;101267.72;5012901;28;20494;-45
2022/11/14 10:04:06;;;;;;;28.25;16.50;;;;;;;9.84;61.73;101267.59;5012991;28;20029;-46
2022/11/14 10:06:54;;;;;;;26.02;16.00;;;;;;;9.39;63.35;101262.22;5013185;28;20402;-44
2022/11/14 10:09:53;;;;;;;28.40;17.00;;;;;;;9.32;63.98;101269.88;5014226;28;20034;-44
2022/11/14 10:12:36;;;;;;;28.35;15.63;;;;;;;9.39;63.72;101265.69;5014992;28;20645;-43
2022/11/14 10:15:07;;;;;;;29.83;17.42;;;;;;;9.81;62.56;101268.44;5015403;28;20032;-44
2022/11/14 10:17:47;;;;;;;27.13;16.40;;;;;;;9.79;62.72;101262.28;5012535;28;20030;-49
2022/11/14 10:20:22;;;;;;;27.42;16.35;;;;;;;9.76;62.41;101259.59;5012217;28;20096;-43
2022/11/14 10:23:13;;;;;;;27.73;16.35;;;;;;;10.26;61.15;101250.31;5011919;28;20053;-45
2022/11/14 10:25:54;;;;;;;26.92;16.60;;;;;;;9.93;62.12;101249.59;5012381;28;20044;-46
2022/11/14 10:28:41;;;;;;;27.85;16.63;;;;;;;10.25;61.71;101247.69;5012864;28;20067;-42
2022/11/14 10:31:15;;;;;;;27.50;16.52;;;;;;;10.24;61.70;101251.16;5012462;28;20470;-43
2022/11/14 10:33:52;;;;;;;27.15;16.38;;;;;;;10.55;61.62;101254.38;5012301;28;20029;-45
2022/11/14 10:36:35;;;;;;;28.27;16.42;;;;;;;10.35;61.66;101245.31;5012065;28;20033;-44
2022/11/14 10:39:10;;;;;;;32.28;16.15;;;;;;;10.50;61.68;101252.53;5011015;28;20464;-45
2022/11/14 10:41:36;;;;;;;29.55;16.23;;;;;;;10.33;62.22;101262.63;5011622;28;20097;-43
2022/11/14 10:44:02;;;;;;;27.17;16.27;;;;;;;10.27;61.98;101248.59;5012226;28;20022;-43
2022/11/14 10:46:38;;;;;;;31.73;17.08;;;;;;;10.61;61.15;101253.66;5011833;28;20044;-44
2022/11/14 10:49:18;;;;;;;26.58;16.05;;;;;;;10.70;61.37;101245.09;5011411;28;20052;-43
2022/11/14 10:51:47;;;;;;;26.35;16.13;;;;;;;10.56;61.75;101242.22;5011585;28;20126;-46
2022/11/14 10:54:24;;;;;;;27.67;16.33;;;;;;;10.67;61.61;101245.06;5011699;28;20100;-46
2022/11/14 10:56:51;;;;;;;27.60;16.30;;;;;;;10.55;61.44;101243.94;5011368;28;20022;-44
2022/11/14 10:59:17;;;;;;;25.60;16.05;;;;;;;10.58;61.39;101243.16;5012175;28;20329;-45
2022/11/14 11:01:42;;;;;;;27.42;16.65;;;;;;;10.82;61.42;101234.91;5013237;28;20029;-43
2022/11/14 11:04:21;;;;;;;27.48;15.80;;;;;;;10.93;60.65;101229.00;5011762;28;20083;-43
2022/11/14 11:06:48;;;;;;;26.52;16.35;;;;;;;11.10;60.32;101218.84;5011849;28;20087;-42
2022/11/14 11:12:04;;;;;;;27.05;16.17;;;;;;;11.50;59.42;101222.13;5013177;28;20063;-44
2022/11/14 11:14:30;;;;;;;27.48;16.67;;;;;;;11.18;60.12;101219.00;5011854;28;20026;-44
2022/11/14 11:17:11;;;;;;;26.58;15.93;;;;;;;11.73;58.64;101213.78;5009704;28;20490;-43
2022/11/14 11:19:37;;;;;;;26.65;16.10;;;;;;;11.68;58.93;101219.78;5011259;28;20105;-48